LIRZ

Perugia San Francesco d'Assisi – Umbria International Airport

Perugia, Italy
TAF LIRZ 181100Z 1812/1912 18012KT 9999 BKN050 TEMPO 1812/1815 RA BECMG 1815/1817 VRB05KT
Issued Valid From Valid To
Jan-18 @ 11:00 UTC
(an hour ago)
Jan-18 @ 12:00 UTC
(8 minutes ago)
Jan-19 @ 12:00 UTC
(in 24 hours)
Jan-18 @ 12:00 to Jan-18 @ 15:00
TAF LIRZ 181100Z 1812/1912 18012KT 9999 BKN050
Wind Visibility Clouds
180° at 12 knots 10,000+ meters
  • Broken at 5,000' AGL
Temporary Jan-18 @ 12:00 to Jan-18 @ 15:00
TEMPO 1812/1815 RA
Conditions
  • Rain
Becoming Jan-18 @ 15:00 to Jan-19 @ 12:00
BECMG 1815/1817 VRB05KT
Wind Visibility Clouds
Variable at 5 knots 10,000+ meters
  • Broken at 5,000' AGL
TAF LIRZ 181100Z 1812/1912 18012KT 9999 BKN050 TEMPO 1812/1815 RA BECMG 1815/1817 VRB05KT
Issued Jan-18 @ 11:00 UTC
(an hour ago)
Valid From Jan-18 @ 12:00 UTC
(8 minutes ago)
Valid To Jan-19 @ 12:00 UTC
(in 24 hours)
Jan-18 @ 12:00 - Jan-18 @ 15:00
Wind Visibility
180° at 12 knots 10,000+ meters
Clouds
  • Broken at 5,000' AGL
Temporary Jan-18 @ 12:00 - Jan-18 @ 15:00
Conditions
  • Rain
Becoming Jan-18 @ 15:00 - Jan-19 @ 12:00
Wind Visibility
Variable at 5 knots 10,000+ meters
Clouds
  • Broken at 5,000' AGL